sensor_id;sensor_type;location;lat;lon;timestamp;P1;durP1;ratioP1;P2;durP2;ratioP2
35376;SDS011;21480;51.642;4.834;2022-09-14T00:00:45;123.17;;;113.00;;
35376;SDS011;21480;51.642;4.834;2022-09-14T00:03:10;125.10;;;113.90;;
35376;SDS011;21480;51.642;4.834;2022-09-14T00:05:36;122.20;;;113.03;;
35376;SDS011;21480;51.642;4.834;2022-09-14T00:08:02;122.93;;;112.47;;
35376;SDS011;21480;51.642;4.834;2022-09-14T00:10:31;121.97;;;111.97;;
35376;SDS011;21480;51.642;4.834;2022-09-14T00:12:57;123.70;;;113.37;;
35376;SDS011;21480;51.642;4.834;2022-09-14T00:15:26;120.33;;;110.97;;
35376;SDS011;21480;51.642;4.834;2022-09-14T00:17:52;124.50;;;113.13;;
35376;SDS011;21480;51.642;4.834;2022-09-14T00:20:18;122.33;;;112.40;;
35376;SDS011;21480;51.642;4.834;2022-09-14T00:22:43;123.87;;;113.10;;
35376;SDS011;21480;51.642;4.834;2022-09-14T00:25:09;123.50;;;113.63;;
35376;SDS011;21480;51.642;4.834;2022-09-14T00:27:35;125.07;;;114.90;;
35376;SDS011;21480;51.642;4.834;2022-09-14T00:30:01;120.83;;;111.37;;
35376;SDS011;21480;51.642;4.834;2022-09-14T00:32:26;122.53;;;112.83;;
35376;SDS011;21480;51.642;4.834;2022-09-14T00:34:52;121.77;;;111.47;;
35376;SDS011;21480;51.642;4.834;2022-09-14T00:37:18;125.27;;;114.13;;
35376;SDS011;21480;51.642;4.834;2022-09-14T00:39:43;122.93;;;113.20;;
35376;SDS011;21480;51.642;4.834;2022-09-14T00:42:09;123.43;;;113.20;;
35376;SDS011;21480;51.642;4.834;2022-09-14T00:47:06;121.80;;;112.07;;
35376;SDS011;21480;51.642;4.834;2022-09-14T00:49:36;122.43;;;112.70;;
35376;SDS011;21480;51.642;4.834;2022-09-14T00:54:39;124.20;;;114.10;;
35376;SDS011;21480;51.642;4.834;2022-09-14T00:57:09;122.77;;;112.17;;
35376;SDS011;21480;51.642;4.834;2022-09-14T00:59:36;123.30;;;112.53;;
35376;SDS011;21480;51.642;4.834;2022-09-14T01:02:07;122.43;;;112.57;;
35376;SDS011;21480;51.642;4.834;2022-09-14T01:04:38;121.63;;;111.33;;
35376;SDS011;21480;51.642;4.834;2022-09-14T01:12:28;121.70;;;112.07;;
35376;SDS011;21480;51.642;4.834;2022-09-14T01:20:14;123.17;;;112.83;;
35376;SDS011;21480;51.642;4.834;2022-09-14T01:23:14;123.37;;;113.13;;
35376;SDS011;21480;51.642;4.834;2022-09-14T01:28:40;123.77;;;113.07;;
35376;SDS011;21480;51.642;4.834;2022-09-14T01:31:29;122.20;;;112.10;;
35376;SDS011;21480;51.642;4.834;2022-09-14T01:34:09;124.57;;;114.33;;
35376;SDS011;21480;51.642;4.834;2022-09-14T01:36:41;122.63;;;112.60;;
35376;SDS011;21480;51.642;4.834;2022-09-14T01:39:10;123.33;;;113.07;;
35376;SDS011;21480;51.642;4.834;2022-09-14T01:41:38;123.53;;;113.37;;
35376;SDS011;21480;51.642;4.834;2022-09-14T01:44:09;123.13;;;113.17;;
35376;SDS011;21480;51.642;4.834;2022-09-14T01:46:43;122.20;;;112.00;;
35376;SDS011;21480;51.642;4.834;2022-09-14T01:51:51;123.97;;;113.80;;
35376;SDS011;21480;51.642;4.834;2022-09-14T01:54:29;124.80;;;113.97;;
35376;SDS011;21480;51.642;4.834;2022-09-14T01:59:48;124.10;;;114.17;;
35376;SDS011;21480;51.642;4.834;2022-09-14T02:07:28;123.60;;;113.60;;
35376;SDS011;21480;51.642;4.834;2022-09-14T02:09:54;124.67;;;113.83;;
35376;SDS011;21480;51.642;4.834;2022-09-14T02:12:20;123.23;;;113.20;;
35376;SDS011;21480;51.642;4.834;2022-09-14T02:14:46;124.47;;;114.23;;
35376;SDS011;21480;51.642;4.834;2022-09-14T02:17:14;123.37;;;113.17;;
35376;SDS011;21480;51.642;4.834;2022-09-14T02:19:45;122.20;;;112.67;;
35376;SDS011;21480;51.642;4.834;2022-09-14T02:22:17;122.47;;;112.97;;
35376;SDS011;21480;51.642;4.834;2022-09-14T02:24:46;123.77;;;113.67;;
35376;SDS011;21480;51.642;4.834;2022-09-14T02:27:13;124.00;;;113.83;;
35376;SDS011;21480;51.642;4.834;2022-09-14T02:29:39;122.37;;;112.37;;
35376;SDS011;21480;51.642;4.834;2022-09-14T02:32:14;123.63;;;113.33;;
35376;SDS011;21480;51.642;4.834;2022-09-14T02:38:12;125.07;;;115.07;;
35376;SDS011;21480;51.642;4.834;2022-09-14T02:41:17;124.77;;;114.83;;
35376;SDS011;21480;51.642;4.834;2022-09-14T02:49:17;121.33;;;112.07;;
35376;SDS011;21480;51.642;4.834;2022-09-14T02:51:55;124.47;;;114.53;;
35376;SDS011;21480;51.642;4.834;2022-09-14T02:54:31;123.63;;;113.80;;
35376;SDS011;21480;51.642;4.834;2022-09-14T02:57:12;123.10;;;113.53;;
35376;SDS011;21480;51.642;4.834;2022-09-14T02:59:38;124.30;;;114.33;;
35376;SDS011;21480;51.642;4.834;2022-09-14T03:02:04;123.73;;;113.63;;
35376;SDS011;21480;51.642;4.834;2022-09-14T03:04:29;123.97;;;113.23;;
35376;SDS011;21480;51.642;4.834;2022-09-14T03:06:55;122.70;;;113.07;;
35376;SDS011;21480;51.642;4.834;2022-09-14T03:09:21;122.60;;;112.43;;
35376;SDS011;21480;51.642;4.834;2022-09-14T03:11:49;123.43;;;112.97;;
35376;SDS011;21480;51.642;4.834;2022-09-14T03:14:15;122.23;;;112.50;;
35376;SDS011;21480;51.642;4.834;2022-09-14T03:16:41;125.13;;;114.87;;
35376;SDS011;21480;51.642;4.834;2022-09-14T03:19:06;125.60;;;115.03;;
35376;SDS011;21480;51.642;4.834;2022-09-14T03:21:32;122.47;;;111.93;;
35376;SDS011;21480;51.642;4.834;2022-09-14T03:23:58;123.13;;;112.93;;
35376;SDS011;21480;51.642;4.834;2022-09-14T03:26:24;124.10;;;113.63;;
35376;SDS011;21480;51.642;4.834;2022-09-14T03:28:53;123.77;;;113.87;;
35376;SDS011;21480;51.642;4.834;2022-09-14T03:31:21;122.30;;;112.50;;
35376;SDS011;21480;51.642;4.834;2022-09-14T03:33:51;122.43;;;112.63;;
35376;SDS011;21480;51.642;4.834;2022-09-14T03:36:19;122.87;;;112.43;;
35376;SDS011;21480;51.642;4.834;2022-09-14T03:38:49;122.50;;;112.83;;
35376;SDS011;21480;51.642;4.834;2022-09-14T03:41:20;123.77;;;113.23;;
35376;SDS011;21480;51.642;4.834;2022-09-14T03:43:47;123.13;;;113.20;;
35376;SDS011;21480;51.642;4.834;2022-09-14T03:46:17;123.77;;;112.93;;
35376;SDS011;21480;51.642;4.834;2022-09-14T03:48:45;126.27;;;115.93;;
35376;SDS011;21480;51.642;4.834;2022-09-14T03:51:11;125.30;;;114.30;;
35376;SDS011;21480;51.642;4.834;2022-09-14T03:53:38;122.93;;;112.90;;
35376;SDS011;21480;51.642;4.834;2022-09-14T03:56:08;124.67;;;114.97;;
35376;SDS011;21480;51.642;4.834;2022-09-14T03:58:37;124.53;;;113.93;;
35376;SDS011;21480;51.642;4.834;2022-09-14T04:01:06;124.50;;;114.10;;
35376;SDS011;21480;51.642;4.834;2022-09-14T04:03:37;124.30;;;114.17;;
35376;SDS011;21480;51.642;4.834;2022-09-14T04:06:03;124.43;;;113.87;;
35376;SDS011;21480;51.642;4.834;2022-09-14T04:08:32;125.13;;;114.77;;
35376;SDS011;21480;51.642;4.834;2022-09-14T04:10:59;124.67;;;115.00;;
35376;SDS011;21480;51.642;4.834;2022-09-14T04:13:25;125.57;;;114.87;;
35376;SDS011;21480;51.642;4.834;2022-09-14T04:15:57;125.23;;;114.50;;
35376;SDS011;21480;51.642;4.834;2022-09-14T04:18:24;124.77;;;114.33;;
35376;SDS011;21480;51.642;4.834;2022-09-14T04:20:54;123.20;;;112.97;;
35376;SDS011;21480;51.642;4.834;2022-09-14T04:23:30;125.50;;;115.47;;
35376;SDS011;21480;51.642;4.834;2022-09-14T04:25:56;122.83;;;113.07;;
35376;SDS011;21480;51.642;4.834;2022-09-14T04:28:22;126.13;;;115.03;;
35376;SDS011;21480;51.642;4.834;2022-09-14T04:30:58;123.50;;;113.57;;
35376;SDS011;21480;51.642;4.834;2022-09-14T04:33:27;122.90;;;112.53;;
35376;SDS011;21480;51.642;4.834;2022-09-14T04:35:55;122.50;;;112.27;;
35376;SDS011;21480;51.642;4.834;2022-09-14T04:38:31;124.60;;;113.90;;
35376;SDS011;21480;51.642;4.834;2022-09-14T04:40:57;123.00;;;112.93;;
35376;SDS011;21480;51.642;4.834;2022-09-14T04:43:24;123.93;;;113.93;;
35376;SDS011;21480;51.642;4.834;2022-09-14T04:45:50;123.43;;;113.37;;
35376;SDS011;21480;51.642;4.834;2022-09-14T04:48:17;124.53;;;114.30;;
35376;SDS011;21480;51.642;4.834;2022-09-14T04:50:44;125.20;;;114.77;;
35376;SDS011;21480;51.642;4.834;2022-09-14T04:53:10;127.43;;;115.60;;
35376;SDS011;21480;51.642;4.834;2022-09-14T04:55:36;123.33;;;113.10;;
35376;SDS011;21480;51.642;4.834;2022-09-14T04:58:02;123.47;;;114.23;;
35376;SDS011;21480;51.642;4.834;2022-09-14T05:00:28;124.17;;;114.20;;
35376;SDS011;21480;51.642;4.834;2022-09-14T05:02:54;124.07;;;114.13;;
35376;SDS011;21480;51.642;4.834;2022-09-14T05:05:20;124.93;;;114.20;;
35376;SDS011;21480;51.642;4.834;2022-09-14T05:07:45;121.37;;;111.67;;
35376;SDS011;21480;51.642;4.834;2022-09-14T05:10:11;123.93;;;113.50;;
35376;SDS011;21480;51.642;4.834;2022-09-14T05:12:36;124.03;;;113.63;;
35376;SDS011;21480;51.642;4.834;2022-09-14T05:15:02;124.20;;;114.03;;
35376;SDS011;21480;51.642;4.834;2022-09-14T05:17:28;124.30;;;114.33;;
35376;SDS011;21480;51.642;4.834;2022-09-14T05:19:59;123.10;;;113.50;;
35376;SDS011;21480;51.642;4.834;2022-09-14T05:22:25;122.80;;;113.20;;
35376;SDS011;21480;51.642;4.834;2022-09-14T05:24:50;125.53;;;115.13;;
35376;SDS011;21480;51.642;4.834;2022-09-14T05:27:16;124.57;;;114.47;;
35376;SDS011;21480;51.642;4.834;2022-09-14T05:29:41;123.93;;;113.73;;
35376;SDS011;21480;51.642;4.834;2022-09-14T05:32:07;122.80;;;113.40;;
35376;SDS011;21480;51.642;4.834;2022-09-14T05:34:33;122.50;;;112.80;;
35376;SDS011;21480;51.642;4.834;2022-09-14T05:36:59;124.00;;;113.87;;
35376;SDS011;21480;51.642;4.834;2022-09-14T05:39:25;123.93;;;113.97;;
35376;SDS011;21480;51.642;4.834;2022-09-14T05:41:50;123.03;;;113.43;;
35376;SDS011;21480;51.642;4.834;2022-09-14T05:44:16;124.90;;;114.23;;
35376;SDS011;21480;51.642;4.834;2022-09-14T05:46:42;121.63;;;111.93;;
35376;SDS011;21480;51.642;4.834;2022-09-14T05:49:10;124.27;;;113.67;;
35376;SDS011;21480;51.642;4.834;2022-09-14T05:51:36;123.00;;;112.77;;
35376;SDS011;21480;51.642;4.834;2022-09-14T05:54:02;123.63;;;114.03;;
35376;SDS011;21480;51.642;4.834;2022-09-14T05:56:33;123.53;;;113.37;;
35376;SDS011;21480;51.642;4.834;2022-09-14T05:58:59;122.70;;;112.80;;
35376;SDS011;21480;51.642;4.834;2022-09-14T06:01:26;124.57;;;114.60;;
35376;SDS011;21480;51.642;4.834;2022-09-14T06:03:53;124.00;;;113.87;;
35376;SDS011;21480;51.642;4.834;2022-09-14T06:06:20;124.50;;;114.70;;
35376;SDS011;21480;51.642;4.834;2022-09-14T06:08:48;124.20;;;114.33;;
35376;SDS011;21480;51.642;4.834;2022-09-14T06:11:17;123.50;;;113.03;;
35376;SDS011;21480;51.642;4.834;2022-09-14T06:13:45;121.50;;;111.90;;
35376;SDS011;21480;51.642;4.834;2022-09-14T06:16:12;122.50;;;113.00;;
35376;SDS011;21480;51.642;4.834;2022-09-14T06:18:39;123.17;;;113.53;;
35376;SDS011;21480;51.642;4.834;2022-09-14T06:21:06;122.80;;;112.80;;
35376;SDS011;21480;51.642;4.834;2022-09-14T06:23:33;125.90;;;115.50;;
35376;SDS011;21480;51.642;4.834;2022-09-14T06:26:00;124.33;;;113.77;;
35376;SDS011;21480;51.642;4.834;2022-09-14T06:28:27;125.53;;;115.17;;
35376;SDS011;21480;51.642;4.834;2022-09-14T06:30:54;124.27;;;114.00;;
35376;SDS011;21480;51.642;4.834;2022-09-14T06:33:20;124.83;;;114.83;;
35376;SDS011;21480;51.642;4.834;2022-09-14T06:35:53;124.17;;;113.77;;
35376;SDS011;21480;51.642;4.834;2022-09-14T06:38:26;123.47;;;113.70;;
35376;SDS011;21480;51.642;4.834;2022-09-14T06:40:56;122.40;;;112.67;;
35376;SDS011;21480;51.642;4.834;2022-09-14T06:43:23;123.57;;;113.57;;
35376;SDS011;21480;51.642;4.834;2022-09-14T06:48:23;124.87;;;114.40;;
35376;SDS011;21480;51.642;4.834;2022-09-14T06:50:49;125.37;;;114.90;;
35376;SDS011;21480;51.642;4.834;2022-09-14T06:53:15;125.93;;;115.57;;
35376;SDS011;21480;51.642;4.834;2022-09-14T06:55:41;125.70;;;115.60;;
35376;SDS011;21480;51.642;4.834;2022-09-14T06:58:08;127.93;;;117.03;;
35376;SDS011;21480;51.642;4.834;2022-09-14T07:00:35;126.47;;;115.83;;
35376;SDS011;21480;51.642;4.834;2022-09-14T07:03:01;128.53;;;117.27;;
35376;SDS011;21480;51.642;4.834;2022-09-14T07:05:26;127.93;;;117.03;;
35376;SDS011;21480;51.642;4.834;2022-09-14T07:07:53;127.03;;;116.70;;
35376;SDS011;21480;51.642;4.834;2022-09-14T07:10:18;127.20;;;116.20;;
35376;SDS011;21480;51.642;4.834;2022-09-14T07:12:44;125.97;;;115.27;;
35376;SDS011;21480;51.642;4.834;2022-09-14T07:15:10;125.77;;;114.97;;
35376;SDS011;21480;51.642;4.834;2022-09-14T07:17:35;124.47;;;113.93;;
35376;SDS011;21480;51.642;4.834;2022-09-14T07:20:02;126.67;;;116.43;;
35376;SDS011;21480;51.642;4.834;2022-09-14T07:22:31;126.00;;;115.83;;
35376;SDS011;21480;51.642;4.834;2022-09-14T07:24:58;125.23;;;114.97;;
35376;SDS011;21480;51.642;4.834;2022-09-14T07:27:24;126.37;;;115.60;;
35376;SDS011;21480;51.642;4.834;2022-09-14T07:29:50;125.07;;;115.17;;
35376;SDS011;21480;51.642;4.834;2022-09-14T07:32:16;123.27;;;113.50;;
35376;SDS011;21480;51.642;4.834;2022-09-14T07:34:45;125.73;;;115.23;;
35376;SDS011;21480;51.642;4.834;2022-09-14T07:37:11;126.47;;;115.80;;
35376;SDS011;21480;51.642;4.834;2022-09-14T07:39:37;126.53;;;115.87;;
35376;SDS011;21480;51.642;4.834;2022-09-14T07:42:02;125.63;;;114.77;;
35376;SDS011;21480;51.642;4.834;2022-09-14T07:44:28;124.67;;;114.90;;
35376;SDS011;21480;51.642;4.834;2022-09-14T07:46:54;124.67;;;114.63;;
35376;SDS011;21480;51.642;4.834;2022-09-14T07:49:19;123.10;;;113.37;;
35376;SDS011;21480;51.642;4.834;2022-09-14T07:51:46;125.67;;;114.50;;
35376;SDS011;21480;51.642;4.834;2022-09-14T07:54:13;125.30;;;114.90;;
35376;SDS011;21480;51.642;4.834;2022-09-14T07:56:41;124.63;;;114.73;;
35376;SDS011;21480;51.642;4.834;2022-09-14T07:59:11;125.70;;;115.57;;
35376;SDS011;21480;51.642;4.834;2022-09-14T08:01:38;124.43;;;114.83;;
35376;SDS011;21480;51.642;4.834;2022-09-14T08:04:04;123.77;;;113.73;;
35376;SDS011;21480;51.642;4.834;2022-09-14T08:06:30;125.70;;;115.03;;
35376;SDS011;21480;51.642;4.834;2022-09-14T08:08:56;123.17;;;113.43;;
35376;SDS011;21480;51.642;4.834;2022-09-14T08:13:51;124.07;;;113.87;;
35376;SDS011;21480;51.642;4.834;2022-09-14T08:16:18;123.47;;;113.60;;
35376;SDS011;21480;51.642;4.834;2022-09-14T08:18:45;126.03;;;115.63;;
35376;SDS011;21480;51.642;4.834;2022-09-14T08:21:14;126.20;;;115.93;;
35376;SDS011;21480;51.642;4.834;2022-09-14T08:23:40;124.17;;;114.13;;
35376;SDS011;21480;51.642;4.834;2022-09-14T08:26:08;124.20;;;114.10;;
35376;SDS011;21480;51.642;4.834;2022-09-14T08:28:36;124.70;;;113.93;;
35376;SDS011;21480;51.642;4.834;2022-09-14T08:31:21;123.70;;;113.23;;
35376;SDS011;21480;51.642;4.834;2022-09-14T08:33:49;123.07;;;113.07;;
35376;SDS011;21480;51.642;4.834;2022-09-14T08:36:19;122.63;;;112.90;;
35376;SDS011;21480;51.642;4.834;2022-09-14T08:38:47;123.60;;;113.63;;
35376;SDS011;21480;51.642;4.834;2022-09-14T08:41:32;123.63;;;113.17;;
35376;SDS011;21480;51.642;4.834;2022-09-14T08:46:39;124.07;;;113.67;;
35376;SDS011;21480;51.642;4.834;2022-09-14T08:52:27;123.67;;;113.40;;
35376;SDS011;21480;51.642;4.834;2022-09-14T08:55:19;125.40;;;114.70;;
35376;SDS011;21480;51.642;4.834;2022-09-14T08:58:00;123.43;;;113.57;;
35376;SDS011;21480;51.642;4.834;2022-09-14T09:00:36;125.97;;;115.43;;
35376;SDS011;21480;51.642;4.834;2022-09-14T09:06:14;124.57;;;114.63;;
35376;SDS011;21480;51.642;4.834;2022-09-14T09:11:44;125.63;;;115.70;;
35376;SDS011;21480;51.642;4.834;2022-09-14T09:16:55;125.27;;;114.63;;
35376;SDS011;21480;51.642;4.834;2022-09-14T09:19:43;126.17;;;115.63;;
35376;SDS011;21480;51.642;4.834;2022-09-14T09:22:19;124.83;;;115.43;;
35376;SDS011;21480;51.642;4.834;2022-09-14T09:24:49;123.63;;;114.17;;
35376;SDS011;21480;51.642;4.834;2022-09-14T09:27:18;127.07;;;116.70;;
35376;SDS011;21480;51.642;4.834;2022-09-14T09:29:43;125.20;;;115.57;;
35376;SDS011;21480;51.642;4.834;2022-09-14T09:32:17;124.03;;;114.03;;
35376;SDS011;21480;51.642;4.834;2022-09-14T09:34:46;125.70;;;115.63;;
35376;SDS011;21480;51.642;4.834;2022-09-14T09:37:16;124.83;;;114.10;;
35376;SDS011;21480;51.642;4.834;2022-09-14T09:39:44;125.57;;;114.73;;
35376;SDS011;21480;51.642;4.834;2022-09-14T09:42:23;123.20;;;113.83;;
35376;SDS011;21480;51.642;4.834;2022-09-14T09:45:02;126.13;;;115.93;;
35376;SDS011;21480;51.642;4.834;2022-09-14T09:47:36;123.90;;;114.03;;
35376;SDS011;21480;51.642;4.834;2022-09-14T09:50:19;123.97;;;114.07;;
35376;SDS011;21480;51.642;4.834;2022-09-14T09:52:56;120.90;;;111.80;;
35376;SDS011;21480;51.642;4.834;2022-09-14T09:55:24;123.67;;;113.83;;
35376;SDS011;21480;51.642;4.834;2022-09-14T09:58:18;122.53;;;113.10;;
35376;SDS011;21480;51.642;4.834;2022-09-14T10:01:01;125.90;;;116.17;;
35376;SDS011;21480;51.642;4.834;2022-09-14T10:03:38;123.30;;;113.40;;
35376;SDS011;21480;51.642;4.834;2022-09-14T10:06:09;122.43;;;112.70;;
35376;SDS011;21480;51.642;4.834;2022-09-14T10:08:43;122.27;;;112.27;;
35376;SDS011;21480;51.642;4.834;2022-09-14T10:14:20;124.20;;;114.07;;
35376;SDS011;21480;51.642;4.834;2022-09-14T10:17:05;123.80;;;113.27;;
35376;SDS011;21480;51.642;4.834;2022-09-14T10:19:40;123.47;;;113.53;;
35376;SDS011;21480;51.642;4.834;2022-09-14T10:22:16;123.10;;;113.00;;
35376;SDS011;21480;51.642;4.834;2022-09-14T10:24:56;121.97;;;112.43;;
35376;SDS011;21480;51.642;4.834;2022-09-14T10:30:03;122.07;;;112.80;;
35376;SDS011;21480;51.642;4.834;2022-09-14T10:32:37;122.50;;;112.43;;
35376;SDS011;21480;51.642;4.834;2022-09-14T10:35:12;123.57;;;113.40;;
35376;SDS011;21480;51.642;4.834;2022-09-14T10:37:53;123.87;;;113.63;;
35376;SDS011;21480;51.642;4.834;2022-09-14T10:40:24;123.20;;;113.53;;
35376;SDS011;21480;51.642;4.834;2022-09-14T10:43:24;122.17;;;112.70;;
35376;SDS011;21480;51.642;4.834;2022-09-14T10:46:11;122.97;;;113.73;;
35376;SDS011;21480;51.642;4.834;2022-09-14T10:49:03;122.53;;;113.03;;
35376;SDS011;21480;51.642;4.834;2022-09-14T10:57:22;122.67;;;113.27;;
35376;SDS011;21480;51.642;4.834;2022-09-14T11:00:04;122.27;;;112.80;;
35376;SDS011;21480;51.642;4.834;2022-09-14T11:05:35;121.30;;;111.97;;
35376;SDS011;21480;51.642;4.834;2022-09-14T11:26:42;120.07;;;110.67;;
35376;SDS011;21480;51.642;4.834;2022-09-14T11:29:21;119.53;;;110.33;;
35376;SDS011;21480;51.642;4.834;2022-09-14T11:34:40;118.43;;;109.63;;
35376;SDS011;21480;51.642;4.834;2022-09-14T11:37:18;118.50;;;109.83;;
35376;SDS011;21480;51.642;4.834;2022-09-14T11:40:13;120.13;;;111.27;;
35376;SDS011;21480;51.642;4.834;2022-09-14T11:45:23;119.80;;;110.77;;
35376;SDS011;21480;51.642;4.834;2022-09-14T11:48:02;120.77;;;111.40;;
35376;SDS011;21480;51.642;4.834;2022-09-14T11:53:41;119.93;;;110.93;;
35376;SDS011;21480;51.642;4.834;2022-09-14T11:56:31;118.50;;;110.00;;
35376;SDS011;21480;51.642;4.834;2022-09-14T11:58:59;118.67;;;109.87;;
35376;SDS011;21480;51.642;4.834;2022-09-14T12:01:37;119.17;;;110.37;;
35376;SDS011;21480;51.642;4.834;2022-09-14T12:04:08;118.47;;;109.67;;
35376;SDS011;21480;51.642;4.834;2022-09-14T12:11:44;119.70;;;110.90;;
35376;SDS011;21480;51.642;4.834;2022-09-14T12:19:41;118.90;;;109.90;;
35376;SDS011;21480;51.642;4.834;2022-09-14T12:27:39;121.03;;;111.73;;
35376;SDS011;21480;51.642;4.834;2022-09-14T12:33:01;122.83;;;113.30;;
35376;SDS011;21480;51.642;4.834;2022-09-14T12:40:53;119.37;;;110.63;;
35376;SDS011;21480;51.642;4.834;2022-09-14T12:46:04;119.30;;;110.50;;
35376;SDS011;21480;51.642;4.834;2022-09-14T12:53:58;120.43;;;111.73;;
35376;SDS011;21480;51.642;4.834;2022-09-14T13:05:04;119.47;;;110.40;;
35376;SDS011;21480;51.642;4.834;2022-09-14T13:07:36;120.03;;;110.93;;
35376;SDS011;21480;51.642;4.834;2022-09-14T13:10:04;120.30;;;111.33;;
35376;SDS011;21480;51.642;4.834;2022-09-14T13:12:37;118.70;;;110.00;;
35376;SDS011;21480;51.642;4.834;2022-09-14T13:15:28;120.60;;;111.67;;
35376;SDS011;21480;51.642;4.834;2022-09-14T13:18:01;118.73;;;110.07;;
35376;SDS011;21480;51.642;4.834;2022-09-14T13:20:55;119.63;;;110.63;;
35376;SDS011;21480;51.642;4.834;2022-09-14T13:23:26;120.20;;;111.13;;
35376;SDS011;21480;51.642;4.834;2022-09-14T13:25:52;119.73;;;110.73;;
35376;SDS011;21480;51.642;4.834;2022-09-14T13:28:19;119.57;;;110.27;;
35376;SDS011;21480;51.642;4.834;2022-09-14T13:30:52;120.73;;;111.83;;
35376;SDS011;21480;51.642;4.834;2022-09-14T13:33:19;119.97;;;110.87;;
35376;SDS011;21480;51.642;4.834;2022-09-14T13:35:47;119.17;;;110.37;;
35376;SDS011;21480;51.642;4.834;2022-09-14T13:38:20;118.53;;;109.87;;
35376;SDS011;21480;51.642;4.834;2022-09-14T13:40:48;118.93;;;110.03;;
35376;SDS011;21480;51.642;4.834;2022-09-14T13:43:17;119.70;;;110.63;;
35376;SDS011;21480;51.642;4.834;2022-09-14T13:45:44;120.90;;;111.60;;
35376;SDS011;21480;51.642;4.834;2022-09-14T13:48:15;119.90;;;110.93;;
35376;SDS011;21480;51.642;4.834;2022-09-14T13:50:43;119.83;;;110.80;;
35376;SDS011;21480;51.642;4.834;2022-09-14T14:01:37;120.97;;;112.03;;
35376;SDS011;21480;51.642;4.834;2022-09-14T14:04:04;119.47;;;110.67;;
35376;SDS011;21480;51.642;4.834;2022-09-14T14:06:44;119.20;;;109.83;;
35376;SDS011;21480;51.642;4.834;2022-09-14T14:09:10;121.20;;;112.13;;
35376;SDS011;21480;51.642;4.834;2022-09-14T14:14:17;121.17;;;111.73;;
35376;SDS011;21480;51.642;4.834;2022-09-14T14:19:37;119.97;;;110.97;;
35376;SDS011;21480;51.642;4.834;2022-09-14T14:24:42;122.40;;;112.63;;
35376;SDS011;21480;51.642;4.834;2022-09-14T14:29:54;120.17;;;111.17;;
35376;SDS011;21480;51.642;4.834;2022-09-14T14:32:20;121.70;;;112.13;;
35376;SDS011;21480;51.642;4.834;2022-09-14T14:34:46;120.63;;;111.50;;
35376;SDS011;21480;51.642;4.834;2022-09-14T14:37:12;119.10;;;110.50;;
35376;SDS011;21480;51.642;4.834;2022-09-14T14:39:38;121.10;;;111.93;;
35376;SDS011;21480;51.642;4.834;2022-09-14T14:42:04;121.80;;;112.53;;
35376;SDS011;21480;51.642;4.834;2022-09-14T14:44:31;120.80;;;111.90;;
35376;SDS011;21480;51.642;4.834;2022-09-14T14:46:58;120.13;;;111.33;;
35376;SDS011;21480;51.642;4.834;2022-09-14T14:49:24;121.60;;;112.47;;
35376;SDS011;21480;51.642;4.834;2022-09-14T14:51:50;120.10;;;111.07;;
35376;SDS011;21480;51.642;4.834;2022-09-14T14:54:17;123.80;;;113.57;;
35376;SDS011;21480;51.642;4.834;2022-09-14T14:56:44;120.87;;;111.77;;
35376;SDS011;21480;51.642;4.834;2022-09-14T14:59:29;120.67;;;111.77;;
35376;SDS011;21480;51.642;4.834;2022-09-14T15:01:55;121.67;;;112.27;;
35376;SDS011;21480;51.642;4.834;2022-09-14T15:04:22;121.33;;;112.00;;
35376;SDS011;21480;51.642;4.834;2022-09-14T15:06:48;122.80;;;113.27;;
35376;SDS011;21480;51.642;4.834;2022-09-14T15:09:16;122.83;;;113.37;;
35376;SDS011;21480;51.642;4.834;2022-09-14T15:11:44;122.90;;;113.03;;
35376;SDS011;21480;51.642;4.834;2022-09-14T15:14:11;124.10;;;114.23;;
35376;SDS011;21480;51.642;4.834;2022-09-14T15:16:38;121.17;;;111.80;;
35376;SDS011;21480;51.642;4.834;2022-09-14T15:19:04;123.77;;;114.47;;
35376;SDS011;21480;51.642;4.834;2022-09-14T15:21:30;123.77;;;114.03;;
35376;SDS011;21480;51.642;4.834;2022-09-14T15:23:55;121.67;;;112.57;;
35376;SDS011;21480;51.642;4.834;2022-09-14T15:26:23;120.87;;;111.83;;
35376;SDS011;21480;51.642;4.834;2022-09-14T15:28:49;122.30;;;112.87;;
35376;SDS011;21480;51.642;4.834;2022-09-14T15:31:16;123.17;;;114.00;;
35376;SDS011;21480;51.642;4.834;2022-09-14T15:33:42;125.87;;;115.33;;
35376;SDS011;21480;51.642;4.834;2022-09-14T15:36:08;122.03;;;112.63;;
35376;SDS011;21480;51.642;4.834;2022-09-14T15:38:34;120.87;;;111.93;;
35376;SDS011;21480;51.642;4.834;2022-09-14T15:41:00;122.50;;;113.37;;
35376;SDS011;21480;51.642;4.834;2022-09-14T15:43:26;122.47;;;113.33;;
35376;SDS011;21480;51.642;4.834;2022-09-14T15:45:52;123.03;;;113.63;;
35376;SDS011;21480;51.642;4.834;2022-09-14T15:48:18;123.00;;;113.73;;
35376;SDS011;21480;51.642;4.834;2022-09-14T15:50:44;120.37;;;111.43;;
35376;SDS011;21480;51.642;4.834;2022-09-14T15:53:12;122.60;;;113.60;;
35376;SDS011;21480;51.642;4.834;2022-09-14T15:55:43;121.43;;;112.40;;
35376;SDS011;21480;51.642;4.834;2022-09-14T15:58:10;121.17;;;112.13;;
35376;SDS011;21480;51.642;4.834;2022-09-14T16:00:36;122.80;;;113.37;;
35376;SDS011;21480;51.642;4.834;2022-09-14T16:03:05;123.07;;;113.27;;
35376;SDS011;21480;51.642;4.834;2022-09-14T16:05:31;124.23;;;114.33;;
35376;SDS011;21480;51.642;4.834;2022-09-14T16:08:02;120.83;;;112.00;;
35376;SDS011;21480;51.642;4.834;2022-09-14T16:10:27;119.17;;;110.13;;
35376;SDS011;21480;51.642;4.834;2022-09-14T16:12:53;119.97;;;111.30;;
35376;SDS011;21480;51.642;4.834;2022-09-14T16:15:20;120.37;;;111.57;;
35376;SDS011;21480;51.642;4.834;2022-09-14T16:17:50;121.07;;;111.57;;
35376;SDS011;21480;51.642;4.834;2022-09-14T16:20:17;122.03;;;112.77;;
35376;SDS011;21480;51.642;4.834;2022-09-14T16:22:45;120.43;;;111.30;;
35376;SDS011;21480;51.642;4.834;2022-09-14T16:25:12;121.30;;;111.93;;
35376;SDS011;21480;51.642;4.834;2022-09-14T16:27:38;122.07;;;112.10;;
35376;SDS011;21480;51.642;4.834;2022-09-14T16:30:05;119.77;;;110.57;;
35376;SDS011;21480;51.642;4.834;2022-09-14T16:32:34;119.20;;;110.50;;
35376;SDS011;21480;51.642;4.834;2022-09-14T16:34:59;120.57;;;111.47;;
35376;SDS011;21480;51.642;4.834;2022-09-14T16:37:25;120.27;;;110.60;;
35376;SDS011;21480;51.642;4.834;2022-09-14T16:39:51;119.57;;;110.37;;
35376;SDS011;21480;51.642;4.834;2022-09-14T16:42:17;122.83;;;113.40;;
35376;SDS011;21480;51.642;4.834;2022-09-14T16:44:43;121.10;;;112.10;;
35376;SDS011;21480;51.642;4.834;2022-09-14T16:47:08;120.70;;;111.10;;
35376;SDS011;21480;51.642;4.834;2022-09-14T16:49:34;121.60;;;112.00;;